Cromwell, Iowa
Current Conditions -  °F | °C
As of 5:35 AM on Friday 24 Oct 2014 (Local Time) from KCSQ Reporting Station
Moderate Fog Moderate Fog  
Wind Chill: 59°   Ceiling: 200
Heat Index: 59°   Visibility: 0.25mi
Dew Point: 59°   Wind: 9mph
Humidity: 100%   Direction: 200°SSW
Pressure: 30.01"   Gusts: 15mph
Location:  41.04°N, 94.46°W
Report Text: KCSQ 241035Z AUTO 20008G13KT 1/4SM FG OVC002 15/15 A3001 RMK AO2
Loading
Personal Weather Stations






























Interactive Weather Map
Tropical Storm Tracking
New forecast layout! Learn more

10-Day Weather Forecast

Advertisements
Track Severe Weather on mobile